Terminal Aerodrome Forecast
Issued by NWS

Home | Current Version | Previous Version | Text Only | Print | Product List | Glossary On
Versions: 1 2 3 4 5 6 7 8 9 10 11 12 13 14
352
FTUS41 KLWX 291125
TAFMTN
TAF
KMTN 291125Z 2912/3012 06007KT 2SM -RADZ BR OVC003
     FM291400 07007KT 3SM -DZ BR OVC008
     FM292000 07006KT P6SM OVC010
     FM300400 07006KT 3SM -DZ BR OVC008
     FM301000 05005KT 3SM BR BKN008=

USA.gov is the U.S. government's official web portal to all federal, state and local government web resources and services.